Time;durP1;ratioP1;P1;durP2;ratioP2;P2;SDS_P1;SDS_P2;PMS_P1;PMS_P2;Temp;Humidity;BMP_temperature;BMP_pressure;BME280_temperature;BME280_humidity;BME280_pressure;Samples;Min_cycle;Max_cycle;Signal;HPM_P1;HPM_P2
2023/03/16 00:01:07;;;;;;;7.30;2.10;;;;;;;0.21;78.71;101354.16;107081;1256;72404;-70
2023/03/16 00:03:35;;;;;;;6.10;2.00;;;;;;;0.19;78.92;101355.84;107147;1258;60999;-70
2023/03/16 00:06:02;;;;;;;5.40;1.90;;;;;;;0.17;78.85;101356.63;107412;1257;60890;-70
2023/03/16 00:08:30;;;;;;;7.60;2.20;;;;;;;0.15;78.94;101358.31;107087;1257;73969;-70
2023/03/16 00:10:57;;;;;;;7.40;2.20;;;;;;;0.13;78.91;101362.08;107350;1256;71244;-69
2023/03/16 00:13:24;;;;;;;4.50;1.60;;;;;;;0.12;78.99;101362.88;106811;1258;71207;-72
2023/03/16 00:15:56;;;;;;;7.30;2.10;;;;;;;0.11;78.85;101361.70;106834;1256;60963;-70
2023/03/16 00:18:27;;;;;;;6.20;2.10;;;;;;;0.10;79.00;101360.34;107125;1258;60512;-70
2023/03/16 00:20:57;;;;;;;6.50;1.90;;;;;;;0.09;79.09;101359.73;106842;1259;73724;-69
2023/03/16 00:23:28;;;;;;;6.20;2.10;;;;;;;0.09;79.26;101359.58;107376;1258;72802;-70
2023/03/16 00:25:59;;;;;;;6.70;2.00;;;;;;;0.09;79.17;101352.27;107200;1258;71515;-69
2023/03/16 00:28:26;;;;;;;7.30;2.10;;;;;;;0.10;79.13;101349.92;107048;1256;61058;-69
2023/03/16 00:30:57;;;;;;;6.20;2.00;;;;;;;0.12;79.05;101350.00;106789;1256;60850;-69
2023/03/16 00:33:25;;;;;;;5.70;2.10;;;;;;;0.13;78.81;101350.98;107031;1256;72462;-69
2023/03/16 00:36:00;;;;;;;4.50;1.90;;;;;;;0.14;78.87;101345.50;106683;1257;70091;-69
2023/03/16 00:38:30;;;;;;;6.30;2.00;;;;;;;0.15;78.82;101345.44;106899;1261;72812;-69
2023/03/16 00:40:57;;;;;;;6.70;2.10;;;;;;;0.16;78.92;101345.54;107056;1256;60384;-71
2023/03/16 00:43:26;;;;;;;5.30;1.80;;;;;;;0.17;78.56;101349.30;107494;1257;60419;-69
2023/03/16 00:46:05;;;;;;;7.20;2.10;;;;;;;0.17;78.63;101348.80;107252;1257;72718;-70
2023/03/16 00:48:34;;;;;;;7.60;2.10;;;;;;;0.16;78.54;101346.23;107046;1258;70131;-69
2023/03/16 00:51:06;;;;;;;5.40;1.90;;;;;;;0.16;78.40;101342.39;107043;1259;72384;-70
2023/03/16 00:53:34;;;;;;;7.00;2.20;;;;;;;0.16;78.36;101337.02;107041;1256;60374;-70
2023/03/16 00:56:03;;;;;;;5.40;2.00;;;;;;;0.15;78.27;101336.42;106739;1256;60526;-70
2023/03/16 00:58:35;;;;;;;5.50;2.20;;;;;;;0.13;78.27;101336.88;106705;1260;73905;-71
2023/03/16 01:01:07;;;;;;;5.30;2.40;;;;;;;0.11;78.37;101337.16;106979;1257;69753;-70
2023/03/16 01:03:34;;;;;;;5.70;2.20;;;;;;;0.09;78.25;101335.74;107590;1256;70770;-70
2023/03/16 01:06:15;;;;;;;5.60;2.10;;;;;;;0.06;78.39;101337.81;106754;1259;60456;-69
2023/03/16 01:08:42;;;;;;;6.20;2.00;;;;;;;0.05;78.33;101336.70;107173;1259;60476;-69
2023/03/16 01:11:12;;;;;;;5.10;2.00;;;;;;;0.02;78.21;101338.55;106807;1256;72724;-70
2023/03/16 01:13:39;;;;;;;5.50;2.00;;;;;;;0.01;78.23;101338.45;107104;1258;69745;-70
2023/03/16 01:16:06;;;;;;;7.80;2.30;;;;;;;-0.01;78.21;101340.30;107041;1257;73699;-71
2023/03/16 01:18:33;;;;;;;5.60;2.10;;;;;;;-0.03;78.16;101341.84;106635;1262;60523;-70
2023/03/16 01:21:06;;;;;;;6.70;2.30;;;;;;;-0.05;78.18;101342.79;107111;1258;60086;-72
2023/03/16 01:23:34;;;;;;;5.50;1.80;;;;;;;-0.08;78.10;101339.70;106920;1258;73141;-70
2023/03/16 01:26:01;;;;;;;7.10;2.10;;;;;;;-0.13;77.99;101338.55;106798;1257;70980;-73
2023/03/16 01:28:30;;;;;;;6.30;2.10;;;;;;;-0.17;77.97;101337.07;106948;1256;72850;-70
2023/03/16 01:31:05;;;;;;;6.20;2.00;;;;;;;-0.20;77.93;101332.40;106944;1257;62185;-70
2023/03/16 01:33:32;;;;;;;5.80;1.90;;;;;;;-0.25;78.07;101327.44;107004;1256;60456;-69
2023/03/16 01:36:06;;;;;;;5.50;2.30;;;;;;;-0.26;78.05;101325.42;107195;1256;72697;-68
2023/03/16 01:38:33;;;;;;;5.00;2.10;;;;;;;-0.27;78.15;101324.13;107353;1256;70927;-70
2023/03/16 01:41:00;;;;;;;6.00;2.00;;;;;;;-0.27;78.19;101322.02;106804;1257;72465;-70
2023/03/16 01:43:30;;;;;;;6.70;1.70;;;;;;;-0.27;78.14;101320.79;106669;1260;60549;-70
2023/03/16 01:46:05;;;;;;;5.40;1.80;;;;;;;-0.26;78.14;101322.64;106838;1256;60432;-70
2023/03/16 01:49:02;;;;;;;5.40;2.10;;;;;;;-0.23;78.22;101325.42;106873;1256;73957;-70
2023/03/16 01:51:40;;;;;;;5.30;1.70;;;;;;;-0.21;77.94;101323.21;106860;1257;69978;-71
2023/03/16 01:54:26;;;;;;;7.20;1.80;;;;;;;-0.19;77.87;101327.97;106854;1259;72433;-70
2023/03/16 01:57:08;;;;;;;4.40;1.50;;;;;;;-0.17;77.68;101319.70;107548;1256;62926;-69
2023/03/16 01:59:49;;;;;;;5.80;1.90;;;;;;;-0.16;77.75;101319.66;107329;1256;60476;-69
2023/03/16 02:02:20;;;;;;;5.60;1.80;;;;;;;-0.16;77.73;101317.71;107930;1256;72320;-69
2023/03/16 02:04:58;;;;;;;4.60;1.80;;;;;;;-0.14;77.74;101315.88;108766;1261;69650;-70
2023/03/16 02:07:27;;;;;;;5.80;1.70;;;;;;;-0.13;77.65;101316.67;108002;1259;72469;-69
2023/03/16 02:09:59;;;;;;;6.00;1.90;;;;;;;-0.14;77.70;101317.97;108057;1256;61245;-69
2023/03/16 02:12:27;;;;;;;5.70;2.00;;;;;;;-0.14;77.67;101321.11;107720;1256;60484;-70
2023/03/16 02:14:55;;;;;;;5.20;2.00;;;;;;;-0.15;77.68;101326.91;107091;1257;71945;-69
2023/03/16 02:17:28;;;;;;;7.80;2.10;;;;;;;-0.19;77.72;101321.19;107332;1259;71304;-70
2023/03/16 02:20:21;;;;;;;6.10;2.10;;;;;;;-0.20;77.86;101323.34;107270;1256;71507;-68
2023/03/16 02:22:53;;;;;;;4.90;2.50;;;;;;;-0.23;77.87;101326.96;107134;1257;61857;-69
2023/03/16 02:26:02;;;;;;;6.20;2.10;;;;;;;-0.26;77.86;101321.59;106920;1264;60388;-69
2023/03/16 02:29:24;;;;;;;6.50;2.10;;;;;;;-0.33;77.90;101311.74;106915;1259;75057;-70
2023/03/16 02:31:53;;;;;;;7.90;2.40;;;;;;;-0.43;77.99;101311.11;106856;1258;71425;-70
2023/03/16 02:34:20;;;;;;;6.30;2.30;;;;;;;-0.49;78.29;101308.84;107465;1258;72332;-69
2023/03/16 02:36:48;;;;;;;6.80;2.20;;;;;;;-0.52;78.49;101308.34;106839;1259;61662;-69
2023/03/16 02:39:15;;;;;;;5.70;2.00;;;;;;;-0.55;78.58;101304.52;107047;1260;60077;-69
2023/03/16 02:41:42;;;;;;;7.00;2.20;;;;;;;-0.59;78.61;101306.29;107193;1260;71535;-69
2023/03/16 02:44:14;;;;;;;7.30;2.30;;;;;;;-0.64;78.58;101298.24;107360;1257;70603;-69
2023/03/16 02:46:42;;;;;;;5.30;2.30;;;;;;;-0.68;78.61;101302.65;106858;1258;72792;-70
2023/03/16 02:49:15;;;;;;;6.50;2.00;;;;;;;-0.72;78.79;101296.27;106888;1258;60873;-70
2023/03/16 02:51:44;;;;;;;5.50;1.80;;;;;;;-0.76;78.92;101295.83;107162;1262;59362;-69
2023/03/16 02:54:11;;;;;;;7.20;2.00;;;;;;;-0.82;79.15;101293.72;106969;1256;73973;-68
2023/03/16 02:56:38;;;;;;;7.40;2.10;;;;;;;-0.89;79.27;101290.61;106776;1257;71247;-72
2023/03/16 02:59:05;;;;;;;5.00;2.10;;;;;;;-0.94;79.66;101286.06;106855;1258;73301;-71
2023/03/16 03:01:33;;;;;;;5.90;2.10;;;;;;;-0.98;79.67;101288.89;106666;1257;60379;-68
2023/03/16 03:04:03;;;;;;;6.70;2.10;;;;;;;-1.03;79.72;101285.84;107254;1257;60461;-69
2023/03/16 03:06:31;;;;;;;6.30;2.10;;;;;;;-1.07;79.63;101283.98;107000;1258;73848;-69
2023/03/16 03:09:00;;;;;;;6.10;1.80;;;;;;;-1.10;79.80;101283.47;107117;1257;70218;-69
2023/03/16 03:11:28;;;;;;;5.80;1.90;;;;;;;-1.15;79.72;101283.55;107061;1256;71253;-68
2023/03/16 03:13:55;;;;;;;6.20;2.10;;;;;;;-1.20;79.95;101281.77;106820;1257;60563;-70
2023/03/16 03:16:22;;;;;;;7.60;2.40;;;;;;;-1.27;80.14;101277.61;106905;1257;60892;-69
2023/03/16 03:18:51;;;;;;;6.00;2.40;;;;;;;-1.33;80.26;101276.93;106918;1260;73865;-68
2023/03/16 03:21:18;;;;;;;7.70;2.40;;;;;;;-1.39;80.53;101277.98;106859;1258;69798;-68
2023/03/16 03:23:45;;;;;;;6.70;2.30;;;;;;;-1.43;81.04;101274.70;108697;1259;72712;-68
2023/03/16 03:26:16;;;;;;;7.40;2.40;;;;;;;-1.46;81.19;101272.27;107276;1258;62212;-68
2023/03/16 03:28:44;;;;;;;7.40;2.30;;;;;;;-1.50;81.24;101274.72;107191;1258;60498;-68
2023/03/16 03:31:16;;;;;;;6.30;2.50;;;;;;;-1.53;81.36;101273.19;106269;1257;72357;-69
2023/03/16 03:33:43;;;;;;;6.60;2.30;;;;;;;-1.58;81.62;101276.19;106663;1258;70689;-68
2023/03/16 03:36:11;;;;;;;5.50;2.00;;;;;;;-1.61;82.13;101277.25;106531;1259;71182;-69
2023/03/16 03:38:38;;;;;;;5.30;2.20;;;;;;;-1.65;82.01;101275.02;106555;1261;60450;-69
2023/03/16 03:41:08;;;;;;;7.90;2.70;;;;;;;-1.68;81.99;101279.32;106800;1258;60561;-68
2023/03/16 03:43:35;;;;;;;8.10;2.20;;;;;;;-1.69;82.15;101279.02;106534;1258;72619;-69
2023/03/16 03:46:03;;;;;;;4.70;1.90;;;;;;;-1.71;82.33;101278.45;106708;1258;69358;-70
2023/03/16 03:48:30;;;;;;;7.10;2.40;;;;;;;-1.73;82.39;101279.42;106677;1258;73004;-68
2023/03/16 03:50:57;;;;;;;5.80;2.20;;;;;;;-1.76;82.75;101275.73;106453;1259;61705;-69
2023/03/16 03:53:23;;;;;;;6.90;2.30;;;;;;;-1.77;82.85;101279.84;106499;1258;60886;-68
2023/03/16 03:55:50;;;;;;;6.40;2.30;;;;;;;-1.79;82.63;101281.47;106463;1258;72359;-69
2023/03/16 03:58:17;;;;;;;7.50;2.40;;;;;;;-1.80;82.72;101279.42;106458;1258;71196;-69
2023/03/16 04:00:44;;;;;;;5.30;2.40;;;;;;;-1.80;82.82;101277.55;106734;1259;71164;-69
2023/03/16 04:03:11;;;;;;;6.40;2.00;;;;;;;-1.79;83.05;101279.23;106678;1258;60411;-70
2023/03/16 04:05:38;;;;;;;7.10;2.20;;;;;;;-1.79;82.92;101275.08;107054;1262;61050;-70
2023/03/16 04:08:04;;;;;;;5.60;2.00;;;;;;;-1.80;82.89;101279.61;106284;1258;71382;-70
2023/03/16 04:10:31;;;;;;;6.70;2.20;;;;;;;-1.81;82.72;101280.55;106308;1258;71295;-69
2023/03/16 04:12:59;;;;;;;7.00;2.60;;;;;;;-1.82;82.88;101280.27;106355;1263;73076;-70
2023/03/16 04:15:27;;;;;;;5.30;2.00;;;;;;;-1.83;82.86;101282.23;106546;1257;60890;-71
2023/03/16 04:17:53;;;;;;;5.80;2.20;;;;;;;-1.84;83.01;101281.21;106573;1258;60533;-69
2023/03/16 04:20:22;;;;;;;6.80;2.40;;;;;;;-1.85;83.07;101284.36;106646;1259;72468;-68
2023/03/16 04:22:57;;;;;;;4.10;2.10;;;;;;;-1.85;83.10;101280.73;106919;1257;71037;-70
2023/03/16 04:25:26;;;;;;;5.20;2.70;;;;;;;-1.85;83.30;101277.63;106692;1258;72708;-69
2023/03/16 04:27:53;;;;;;;5.00;2.00;;;;;;;-1.85;83.14;101279.36;106674;1259;60523;-70
2023/03/16 04:30:22;;;;;;;6.60;2.40;;;;;;;-1.85;83.31;101282.64;106381;1260;60356;-75
2023/03/16 04:32:50;;;;;;;5.90;2.30;;;;;;;-1.85;83.11;101281.08;106551;1258;73607;-69
2023/03/16 04:35:18;;;;;;;12.90;3.80;;;;;;;-1.87;83.12;101272.37;107461;1257;70567;-69
2023/03/16 04:37:44;;;;;;;8.80;2.70;;;;;;;-1.89;83.31;101269.50;106781;1257;72697;-70
2023/03/16 04:40:15;;;;;;;8.40;2.30;;;;;;;-1.90;83.63;101267.67;106979;1257;61085;-72
2023/03/16 04:42:43;;;;;;;5.50;1.90;;;;;;;-1.89;84.07;101271.08;107117;1258;60531;-71
2023/03/16 04:45:11;;;;;;;6.20;1.90;;;;;;;-1.87;84.01;101275.14;107758;1259;73900;-69
2023/03/16 04:47:38;;;;;;;6.50;2.10;;;;;;;-1.83;84.28;101273.17;107335;1258;70919;-69
2023/03/16 04:50:06;;;;;;;7.00;2.10;;;;;;;-1.78;84.15;101273.78;106569;1259;71489;-69
2023/03/16 04:52:33;;;;;;;6.00;1.70;;;;;;;-1.74;84.12;101274.59;106802;1260;60482;-68
2023/03/16 04:55:00;;;;;;;5.70;2.10;;;;;;;-1.70;84.43;101273.73;106976;1261;60482;-69
2023/03/16 04:57:27;;;;;;;5.40;1.90;;;;;;;-1.66;84.63;101278.16;106607;1259;74054;-69
2023/03/16 04:59:53;;;;;;;4.10;1.80;;;;;;;-1.61;84.57;101277.27;107204;1259;69875;-68
2023/03/16 05:02:20;;;;;;;7.00;2.00;;;;;;;-1.58;84.64;101274.29;106535;1257;72502;-70
2023/03/16 05:04:47;;;;;;;6.10;1.90;;;;;;;-1.55;84.52;101273.61;106552;1263;60714;-68
2023/03/16 05:07:14;;;;;;;5.90;2.20;;;;;;;-1.54;84.39;101278.58;106996;1263;60881;-69
2023/03/16 05:09:41;;;;;;;6.00;2.10;;;;;;;-1.52;84.44;101277.27;106633;1264;73942;-69
2023/03/16 05:12:10;;;;;;;6.50;1.80;;;;;;;-1.50;84.24;101278.20;106727;1261;70239;-69
2023/03/16 05:14:36;;;;;;;5.80;1.80;;;;;;;-1.48;84.25;101277.20;106772;1258;71501;-69
2023/03/16 05:17:03;;;;;;;6.80;2.00;;;;;;;-1.45;84.36;101277.23;106830;1258;61819;-69
2023/03/16 05:19:30;;;;;;;5.30;2.10;;;;;;;-1.42;84.37;101277.59;106788;1258;60537;-69
2023/03/16 05:21:57;;;;;;;7.40;2.50;;;;;;;-1.38;84.39;101278.10;106709;1258;72348;-69
2023/03/16 05:24:24;;;;;;;6.80;2.00;;;;;;;-1.34;84.25;101274.91;107131;1259;72078;-69
2023/03/16 05:26:51;;;;;;;5.10;1.80;;;;;;;-1.32;84.13;101274.77;106901;1257;73235;-68
2023/03/16 05:29:18;;;;;;;5.60;2.00;;;;;;;-1.26;84.18;101277.39;108780;1258;62217;-68
2023/03/16 05:31:48;;;;;;;5.80;1.90;;;;;;;-1.19;83.86;101278.98;108642;1259;58862;-68
2023/03/16 05:34:15;;;;;;;6.70;2.20;;;;;;;-1.14;83.77;101273.64;106831;1261;73566;-69
2023/03/16 05:36:43;;;;;;;4.60;2.00;;;;;;;-1.06;84.42;101269.18;108504;1257;71751;-68
2023/03/16 05:39:10;;;;;;;5.60;2.30;;;;;;;-0.96;84.59;101264.27;107247;1257;72476;-70
2023/03/16 05:41:37;;;;;;;5.20;2.10;;;;;;;-0.88;84.28;101263.13;107130;1257;61810;-70
2023/03/16 05:44:04;;;;;;;4.90;2.10;;;;;;;-0.79;84.27;101266.63;106890;1257;61497;-71
2023/03/16 05:46:32;;;;;;;5.60;2.10;;;;;;;-0.70;84.10;101262.85;106797;1261;72910;-69
2023/03/16 05:48:59;;;;;;;7.00;2.00;;;;;;;-0.62;83.70;101261.16;108803;1257;69956;-69
2023/03/16 05:51:26;;;;;;;5.10;1.90;;;;;;;-0.53;83.62;101263.56;108570;1258;71627;-69
2023/03/16 05:53:57;;;;;;;4.70;1.50;;;;;;;-0.44;83.17;101264.64;107625;1259;62546;-69
2023/03/16 05:56:24;;;;;;;5.60;1.90;;;;;;;-0.36;82.78;101262.79;108037;1257;58836;-69
2023/03/16 05:58:52;;;;;;;5.60;1.90;;;;;;;-0.31;82.64;101259.14;107278;1257;74380;-72
2023/03/16 06:01:20;;;;;;;4.60;1.60;;;;;;;-0.25;82.45;101252.56;106421;1257;71123;-69
2023/03/16 06:03:48;;;;;;;6.90;2.00;;;;;;;-0.20;82.32;101240.77;106499;1258;73581;-70
2023/03/16 06:06:16;;;;;;;5.20;1.70;;;;;;;-0.16;82.20;101235.30;106473;1258;60529;-70
2023/03/16 06:08:43;;;;;;;4.30;1.60;;;;;;;-0.09;82.00;101233.29;106915;1261;60465;-72
2023/03/16 06:11:10;;;;;;;4.90;1.60;;;;;;;0.00;81.79;101228.12;106585;1261;73601;-69
2023/03/16 06:13:38;;;;;;;7.30;1.80;;;;;;;0.07;81.72;101234.48;106420;1257;69842;-69
2023/03/16 06:16:05;;;;;;;4.60;1.30;;;;;;;0.15;81.52;101237.29;106445;1258;71471;-70
2023/03/16 06:18:33;;;;;;;6.60;1.80;;;;;;;0.21;81.38;101236.20;106628;1259;63634;-69
2023/03/16 06:21:00;;;;;;;6.10;2.00;;;;;;;0.28;81.44;101238.02;106858;1258;61568;-69
2023/03/16 06:23:26;;;;;;;5.20;1.80;;;;;;;0.37;81.33;101236.26;106589;1260;72790;-69
2023/03/16 06:25:54;;;;;;;3.90;1.80;;;;;;;0.46;81.27;101235.36;106607;1257;72105;-70
2023/03/16 06:28:21;;;;;;;4.90;1.60;;;;;;;0.57;81.13;101237.96;106626;1260;73332;-69
2023/03/16 06:30:51;;;;;;;5.30;1.90;;;;;;;0.68;80.99;101240.26;106672;1261;60478;-71
2023/03/16 06:33:18;;;;;;;4.70;1.70;;;;;;;0.78;80.48;101249.83;106536;1257;62457;-69
2023/03/16 06:35:47;;;;;;;4.50;1.90;;;;;;;0.89;80.61;101252.48;106682;1259;73641;-71
2023/03/16 06:38:14;;;;;;;6.40;2.00;;;;;;;0.96;80.00;101253.40;106506;1260;70895;-72
2023/03/16 06:40:41;;;;;;;5.50;1.80;;;;;;;1.05;79.94;101250.44;106746;1261;72428;-70
2023/03/16 06:43:08;;;;;;;5.40;2.10;;;;;;;1.12;79.64;101251.49;107103;1257;60542;-69
2023/03/16 06:45:35;;;;;;;6.00;2.70;;;;;;;1.22;79.29;101250.17;106863;1263;61547;-69
2023/03/16 06:48:02;;;;;;;7.30;2.00;;;;;;;1.31;79.25;101252.88;106432;1258;73951;-69
2023/03/16 06:50:30;;;;;;;7.10;2.00;;;;;;;1.39;78.62;101251.52;106599;1260;70967;-71
2023/03/16 06:52:56;;;;;;;3.60;1.50;;;;;;;1.43;78.37;101254.36;106684;1261;70256;-72
2023/03/16 06:55:23;;;;;;;3.80;1.60;;;;;;;1.50;78.28;101260.89;106584;1263;61905;-72
2023/03/16 06:57:50;;;;;;;3.00;1.60;;;;;;;1.55;77.91;101265.77;106385;1260;60550;-74
2023/03/16 07:00:17;;;;;;;4.40;1.40;;;;;;;1.59;77.45;101264.41;107035;1263;73538;-72
2023/03/16 07:02:44;;;;;;;6.10;2.20;;;;;;;1.65;77.49;101268.21;106683;1260;72359;-71
2023/03/16 07:05:14;;;;;;;6.60;2.00;;;;;;;1.73;77.55;101274.33;106773;1261;71437;-72
2023/03/16 07:07:44;;;;;;;5.50;2.10;;;;;;;1.82;77.42;101281.39;106248;1266;61466;-73
2023/03/16 07:10:13;;;;;;;5.00;2.20;;;;;;;1.91;77.18;101276.08;106304;1258;60785;-72
2023/03/16 07:12:41;;;;;;;6.20;2.10;;;;;;;1.99;76.74;101284.61;106533;1258;74003;-72
2023/03/16 07:15:09;;;;;;;5.40;2.10;;;;;;;2.07;76.68;101284.93;106748;1258;69898;-71
2023/03/16 07:17:35;;;;;;;4.10;1.70;;;;;;;2.15;76.49;101289.27;106759;1257;71300;-71
2023/03/16 07:20:04;;;;;;;6.60;2.10;;;;;;;2.25;76.18;101292.60;106472;1259;59674;-71
2023/03/16 07:22:33;;;;;;;6.80;1.70;;;;;;;2.33;75.93;101295.17;106486;1261;61028;-71
2023/03/16 07:25:00;;;;;;;5.30;2.00;;;;;;;2.43;75.88;101295.54;106630;1263;72329;-72
2023/03/16 07:27:28;;;;;;;5.10;2.70;;;;;;;2.52;75.63;101293.31;106868;1257;71528;-71
2023/03/16 07:29:55;;;;;;;4.70;1.80;;;;;;;2.62;75.21;101290.33;106456;1261;73664;-71
2023/03/16 07:32:22;;;;;;;5.50;1.90;;;;;;;2.71;75.12;101292.48;106647;1257;61316;-70
2023/03/16 07:34:49;;;;;;;6.10;1.80;;;;;;;2.79;74.80;101298.05;106952;1258;62047;-70
2023/03/16 07:37:16;;;;;;;6.20;1.90;;;;;;;2.85;74.04;101302.84;106590;1257;73811;-69
2023/03/16 07:39:50;;;;;;;4.80;1.70;;;;;;;2.96;73.94;101307.14;106482;1263;70055;-70
2023/03/16 07:42:17;;;;;;;6.60;2.00;;;;;;;3.07;73.55;101307.94;106571;1257;72667;-71
2023/03/16 07:44:44;;;;;;;4.60;1.70;;;;;;;3.21;73.95;101309.15;106618;1263;62171;-70
2023/03/16 07:47:12;;;;;;;5.70;1.80;;;;;;;3.37;73.13;101308.57;106756;1261;60441;-71
2023/03/16 07:49:40;;;;;;;3.70;1.70;;;;;;;3.51;72.46;101310.98;106565;1257;72537;-72
2023/03/16 07:52:07;;;;;;;4.80;1.60;;;;;;;3.62;71.65;101311.21;106732;1257;70849;-72
2023/03/16 07:54:34;;;;;;;5.10;2.00;;;;;;;3.75;71.34;101314.83;106910;1261;72343;-72
2023/03/16 07:57:01;;;;;;;7.00;2.50;;;;;;;3.87;71.61;101315.63;106600;1258;59252;-74
2023/03/16 07:59:28;;;;;;;5.50;2.10;;;;;;;4.04;71.52;101313.98;106637;1257;60549;-71
2023/03/16 08:01:54;;;;;;;4.30;1.90;;;;;;;4.21;70.67;101309.23;106566;1261;74520;-73
2023/03/16 08:04:21;;;;;;;6.90;2.20;;;;;;;4.39;70.06;101307.83;106372;1260;70234;-73
2023/03/16 08:06:49;;;;;;;4.90;2.00;;;;;;;4.56;69.89;101309.27;106585;1257;71150;-71
2023/03/16 08:09:15;;;;;;;4.60;2.50;;;;;;;4.72;69.06;101308.23;106672;1260;62069;-73
2023/03/16 08:11:42;;;;;;;5.20;1.50;;;;;;;4.80;67.83;101307.60;107102;1259;60471;-72
2023/03/16 08:14:09;;;;;;;5.00;1.50;;;;;;;4.82;66.47;101308.50;106622;1260;74876;-72
2023/03/16 08:16:36;;;;;;;5.40;1.70;;;;;;;4.82;65.85;101302.30;106704;1257;70535;-72
2023/03/16 08:19:03;;;;;;;3.50;1.70;;;;;;;4.86;65.41;101300.77;106680;1259;72595;-72
2023/03/16 08:21:29;;;;;;;4.50;1.50;;;;;;;4.97;65.68;101307.30;106535;1266;60416;-72
2023/03/16 08:23:57;;;;;;;4.30;1.30;;;;;;;5.02;64.43;101307.77;106593;1261;60455;-71
2023/03/16 08:26:27;;;;;;;3.90;1.10;;;;;;;5.11;63.65;101305.98;106724;1257;73243;-71
2023/03/16 08:28:54;;;;;;;2.90;1.00;;;;;;;5.18;62.77;101309.13;106777;1257;71176;-72
2023/03/16 08:31:24;;;;;;;2.90;0.90;;;;;;;5.26;62.71;101312.06;106646;1257;72582;-71
2023/03/16 08:33:51;;;;;;;2.90;1.10;;;;;;;5.32;61.93;101313.23;106355;1259;60538;-70
2023/03/16 08:36:20;;;;;;;5.20;1.40;;;;;;;5.33;61.46;101312.98;106378;1259;60569;-71
2023/03/16 08:38:47;;;;;;;5.30;1.30;;;;;;;5.36;62.15;101318.37;106504;1257;72359;-72
2023/03/16 08:41:33;;;;;;;4.90;1.40;;;;;;;5.41;61.90;101318.58;106467;1258;69821;-72
2023/03/16 08:44:01;;;;;;;4.50;1.60;;;;;;;5.45;61.51;101315.62;106634;1257;70524;-71
2023/03/16 08:46:29;;;;;;;4.70;1.40;;;;;;;5.54;61.59;101311.42;106964;1257;60460;-72
2023/03/16 08:48:56;;;;;;;3.40;1.10;;;;;;;5.66;61.27;101312.70;107153;1257;60271;-73
2023/03/16 08:51:23;;;;;;;2.70;1.10;;;;;;;5.81;60.72;101313.70;106457;1257;71738;-72
2023/03/16 08:53:50;;;;;;;6.00;1.50;;;;;;;5.90;59.39;101315.42;108092;1261;71209;-72
2023/03/16 08:56:17;;;;;;;3.00;1.00;;;;;;;5.99;58.73;101315.41;106733;1257;71171;-73
2023/03/16 08:58:44;;;;;;;3.20;1.00;;;;;;;6.05;58.11;101313.13;108167;1257;60435;-73
2023/03/16 09:01:14;;;;;;;3.70;1.10;;;;;;;6.14;57.85;101312.75;106790;1257;60777;-72
2023/03/16 09:03:41;;;;;;;3.30;1.20;;;;;;;6.26;57.86;101311.01;107114;1258;73978;-73
2023/03/16 09:06:09;;;;;;;4.20;1.10;;;;;;;6.39;57.48;101312.04;106578;1259;70069;-72
2023/03/16 09:08:38;;;;;;;2.20;1.00;;;;;;;6.45;56.53;101314.84;106538;1257;72805;-71
2023/03/16 09:11:08;;;;;;;4.90;1.20;;;;;;;6.54;56.39;101312.59;106657;1257;60762;-71
2023/03/16 09:13:37;;;;;;;4.10;1.10;;;;;;;6.64;55.04;101308.25;106516;1260;60477;-71
2023/03/16 09:16:05;;;;;;;3.30;1.40;;;;;;;6.70;53.85;101304.52;106465;1260;75176;-72
2023/03/16 09:18:34;;;;;;;3.10;0.90;;;;;;;6.79;53.78;101300.59;106591;1260;69956;-71
2023/03/16 09:21:07;;;;;;;3.80;1.10;;;;;;;6.92;53.44;101299.06;106580;1257;71467;-71
2023/03/16 09:23:36;;;;;;;3.90;1.40;;;;;;;6.99;52.26;101295.85;107023;1257;60945;-77
2023/03/16 09:26:06;;;;;;;2.90;1.10;;;;;;;7.09;52.37;101295.86;106631;1260;60370;-72
2023/03/16 09:28:37;;;;;;;3.30;1.00;;;;;;;7.13;50.96;101290.02;106459;1257;72735;-73
2023/03/16 09:31:05;;;;;;;4.10;1.30;;;;;;;7.21;51.15;101288.40;106641;1261;69925;-73
2023/03/16 09:33:33;;;;;;;3.80;1.20;;;;;;;7.28;50.89;101291.30;106474;1257;72743;-73
2023/03/16 09:36:00;;;;;;;3.70;0.90;;;;;;;7.37;51.16;101288.39;106606;1257;60430;-73
2023/03/16 09:38:28;;;;;;;3.00;1.30;;;;;;;7.48;50.85;101288.81;106571;1258;60357;-72
2023/03/16 09:41:02;;;;;;;3.30;1.00;;;;;;;7.56;50.54;101283.77;107038;1258;72813;-72
2023/03/16 09:43:53;;;;;;;3.40;0.90;;;;;;;7.64;49.54;101279.94;106413;1261;69444;-72
2023/03/16 09:46:27;;;;;;;2.90;0.90;;;;;;;7.63;48.98;101278.45;106519;1257;71431;-71
2023/03/16 09:48:56;;;;;;;3.90;1.20;;;;;;;7.67;49.57;101275.83;106392;1261;60980;-72
2023/03/16 09:51:37;;;;;;;4.30;1.00;;;;;;;7.71;49.62;101272.09;106615;1260;60278;-72
2023/03/16 09:54:28;;;;;;;3.20;1.10;;;;;;;7.78;48.97;101269.81;106824;1257;72700;-72
2023/03/16 09:56:56;;;;;;;3.90;1.10;;;;;;;7.94;48.16;101274.54;106823;1257;69947;-73
2023/03/16 10:05:32;;;;;;;3.90;1.10;;;;;;;8.26;46.20;101270.81;106588;1257;60041;-72
2023/03/16 10:08:14;;;;;;;3.40;1.20;;;;;;;8.32;46.23;101272.23;106703;1257;74321;-74
2023/03/16 10:10:47;;;;;;;3.50;1.10;;;;;;;8.40;46.67;101273.76;106643;1258;71653;-72
2023/03/16 10:13:52;;;;;;;2.40;1.00;;;;;;;8.52;46.50;101272.04;106806;1257;71862;-72
2023/03/16 10:16:41;;;;;;;4.00;1.00;;;;;;;8.62;45.45;101273.98;106999;1257;60633;-73
2023/03/16 10:19:15;;;;;;;4.40;0.90;;;;;;;8.68;44.38;101280.60;106584;1257;59239;-73
2023/03/16 10:21:42;;;;;;;2.60;0.80;;;;;;;8.70;44.04;101273.73;106698;1257;73321;-74
2023/03/16 10:24:24;;;;;;;2.60;1.10;;;;;;;8.73;43.58;101268.30;106490;1261;70126;-74
2023/03/16 10:26:59;;;;;;;3.40;1.30;;;;;;;8.78;43.42;101268.53;106579;1257;73485;-71
2023/03/16 10:29:35;;;;;;;4.40;1.20;;;;;;;8.86;43.56;101268.83;106369;1257;60462;-73
2023/03/16 10:32:13;;;;;;;3.30;1.10;;;;;;;8.93;42.39;101271.67;106385;1260;60501;-72
2023/03/16 10:34:45;;;;;;;3.80;1.10;;;;;;;9.02;42.78;101256.30;106982;1261;73659;-73
2023/03/16 10:37:13;;;;;;;4.00;1.20;;;;;;;9.14;42.68;101255.30;106519;1258;68705;-73
2023/03/16 10:39:41;;;;;;;3.40;0.90;;;;;;;9.19;42.60;101250.73;106515;1258;73700;-72
2023/03/16 10:42:20;;;;;;;3.00;1.00;;;;;;;9.26;41.98;101255.33;106732;1258;60951;-73
2023/03/16 10:44:46;;;;;;;3.00;1.20;;;;;;;9.33;41.90;101247.42;106797;1257;61724;-72
2023/03/16 10:47:27;;;;;;;2.80;0.80;;;;;;;9.42;42.07;101244.25;106504;1257;73592;-76
2023/03/16 10:49:54;;;;;;;4.10;1.00;;;;;;;9.48;41.36;101245.25;106628;1259;71682;-73
2023/03/16 10:52:43;;;;;;;1.80;0.80;;;;;;;9.52;40.76;101242.16;107027;1257;72270;-71
2023/03/16 10:55:23;;;;;;;3.40;0.80;;;;;;;9.59;41.00;101242.55;106630;1259;60454;-72
2023/03/16 10:57:53;;;;;;;2.90;0.90;;;;;;;9.67;41.05;101238.56;106593;1260;60205;-74
2023/03/16 11:00:26;;;;;;;2.40;0.80;;;;;;;9.75;40.70;101235.04;106549;1258;72290;-73
2023/03/16 11:02:54;;;;;;;2.80;1.00;;;;;;;9.85;40.48;101233.70;106394;1261;69694;-73
2023/03/16 11:05:32;;;;;;;3.10;0.90;;;;;;;10.00;40.23;101230.80;106872;1257;72521;-72
2023/03/16 11:08:13;;;;;;;2.80;0.80;;;;;;;10.09;40.55;101223.45;106571;1257;61009;-73
2023/03/16 11:10:44;;;;;;;3.20;0.90;;;;;;;10.12;39.94;101219.50;106758;1258;61019;-73
2023/03/16 11:13:25;;;;;;;2.60;0.90;;;;;;;10.14;39.81;101218.38;106519;1257;74539;-73
2023/03/16 11:16:24;;;;;;;3.00;0.90;;;;;;;10.11;39.64;101218.76;106432;1258;71188;-73
2023/03/16 11:18:57;;;;;;;2.50;1.10;;;;;;;10.23;40.19;101218.67;106546;1257;74131;-73
2023/03/16 11:21:37;;;;;;;4.80;0.90;;;;;;;10.24;38.64;101223.98;106457;1257;60456;-74
2023/03/16 11:24:08;;;;;;;3.30;0.80;;;;;;;10.25;39.21;101219.73;106565;1259;60386;-74
2023/03/16 11:26:39;;;;;;;2.70;1.00;;;;;;;10.38;39.95;101213.00;106585;1261;73891;-72
2023/03/16 11:29:16;;;;;;;2.70;1.00;;;;;;;10.50;38.66;101212.35;106739;1257;70937;-74
2023/03/16 11:31:49;;;;;;;4.50;1.10;;;;;;;10.54;38.63;101212.27;106656;1257;72479;-74
2023/03/16 11:34:27;;;;;;;3.40;0.90;;;;;;;10.71;38.97;101209.07;106392;1263;61747;-73
2023/03/16 11:37:13;;;;;;;2.70;1.00;;;;;;;10.88;39.11;101210.21;106210;1258;60483;-71
2023/03/16 11:40:08;;;;;;;3.40;1.00;;;;;;;11.03;38.43;101205.21;106389;1260;200354;-72
2023/03/16 11:42:38;;;;;;;2.50;0.90;;;;;;;11.19;37.94;101200.72;106253;1257;70138;-73